Time;durP1;ratioP1;P1;durP2;ratioP2;P2;SDS_P1;SDS_P2;PMS_P1;PMS_P2;Temp;Humidity;BMP_temperature;BMP_pressure;BME280_temperature;BME280_humidity;BME280_pressure;Samples;Min_cycle;Max_cycle;Signal;HPM_P1;HPM_P2
2023/01/03 00:00:36;;;;;;;16.08;10.00;;;10.00;79.60;;;;;;5035570;28;20053;-76
2023/01/03 00:03:03;;;;;;;17.13;10.10;;;10.00;79.60;;;;;;5034905;28;20048;-76
2023/01/03 00:05:29;;;;;;;16.30;9.90;;;10.00;79.60;;;;;;5050855;28;20115;-76
2023/01/03 00:07:55;;;;;;;17.95;10.18;;;10.00;79.60;;;;;;5032646;28;20045;-76
2023/01/03 00:10:21;;;;;;;16.55;10.40;;;9.90;79.60;;;;;;5063465;28;20119;-76
2023/01/03 00:12:46;;;;;;;15.30;9.25;;;9.90;79.50;;;;;;5030567;28;20084;-76
2023/01/03 00:15:15;;;;;;;16.77;10.20;;;9.90;79.50;;;;;;5038365;28;20029;-77
2023/01/03 00:17:44;;;;;;;18.20;11.70;;;9.90;79.60;;;;;;5030299;28;20359;-77
2023/01/03 00:20:10;;;;;;;16.33;9.57;;;9.90;79.60;;;;;;5028993;28;20116;-76
2023/01/03 00:22:38;;;;;;;16.95;9.60;;;9.90;79.60;;;;;;5038227;28;20377;-76
2023/01/03 00:25:04;;;;;;;16.98;10.10;;;9.90;79.60;;;;;;5036009;28;20021;-76
2023/01/03 00:27:30;;;;;;;17.27;9.90;;;9.90;79.60;;;;;;5019522;28;20042;-76
2023/01/03 00:29:56;;;;;;;16.58;10.15;;;9.90;79.60;;;;;;5035478;28;20079;-76
2023/01/03 00:32:27;;;;;;;16.83;10.07;;;9.90;79.60;;;;;;5023793;28;20018;-76
2023/01/03 00:34:53;;;;;;;15.95;10.13;;;9.80;79.60;;;;;;5048125;28;20036;-76
2023/01/03 00:37:19;;;;;;;14.52;9.00;;;9.90;79.60;;;;;;5044009;28;20037;-76
2023/01/03 00:39:45;;;;;;;15.13;9.77;;;9.80;79.60;;;;;;5053198;28;20068;-76
2023/01/03 00:42:12;;;;;;;15.60;9.57;;;9.80;79.60;;;;;;5052014;28;20065;-76
2023/01/03 00:44:38;;;;;;;16.63;9.73;;;9.80;79.60;;;;;;5023355;28;20125;-76
2023/01/03 00:47:04;;;;;;;15.45;9.13;;;9.80;79.60;;;;;;5022207;28;20072;-76
2023/01/03 00:49:30;;;;;;;16.92;10.32;;;9.80;79.60;;;;;;5016744;28;20034;-76
2023/01/03 00:51:56;;;;;;;16.13;10.02;;;9.80;79.60;;;;;;5032960;28;20029;-76
2023/01/03 00:54:22;;;;;;;17.55;11.43;;;9.80;79.60;;;;;;5033607;28;20053;-76
2023/01/03 00:56:52;;;;;;;15.65;9.73;;;9.70;79.50;;;;;;5033649;28;20026;-76
2023/01/03 00:59:19;;;;;;;14.75;9.68;;;9.70;79.50;;;;;;5033987;28;20439;-76
2023/01/03 01:01:49;;;;;;;15.13;9.98;;;9.70;79.50;;;;;;5013883;28;20036;-77
2023/01/03 01:04:21;;;;;;;15.45;9.95;;;9.70;79.50;;;;;;5024028;28;20091;-77
2023/01/03 01:06:50;;;;;;;16.02;9.60;;;9.70;79.50;;;;;;5017189;28;20510;-76
2023/01/03 01:09:20;;;;;;;14.95;9.65;;;9.60;79.50;;;;;;5036979;28;20033;-76
2023/01/03 01:11:46;;;;;;;15.18;9.27;;;9.60;79.50;;;;;;5032828;28;20124;-76
2023/01/03 01:14:19;;;;;;;15.73;9.95;;;9.60;80.10;;;;;;5035794;28;20167;-76
2023/01/03 01:16:52;;;;;;;18.13;9.50;;;9.60;79.50;;;;;;5054574;28;20104;-76
2023/01/03 01:19:21;;;;;;;14.25;9.30;;;9.60;79.50;;;;;;5032629;28;20469;-76
2023/01/03 01:21:47;;;;;;;15.88;10.10;;;9.60;79.50;;;;;;5029778;28;20064;-77
2023/01/03 01:24:13;;;;;;;15.38;9.65;;;9.60;79.60;;;;;;5042210;28;20054;-76
2023/01/03 01:26:42;;;;;;;17.58;10.10;;;9.60;79.60;;;;;;5033278;28;20147;-76
2023/01/03 01:29:10;;;;;;;14.77;9.75;;;9.60;79.60;;;;;;5014485;28;20056;-76
2023/01/03 01:31:37;;;;;;;16.63;10.52;;;9.70;79.70;;;;;;5047152;28;20034;-76
2023/01/03 01:34:03;;;;;;;19.63;11.02;;;9.70;79.70;;;;;;5033188;28;20052;-76
2023/01/03 01:36:32;;;;;;;17.40;10.90;;;9.70;79.70;;;;;;5017079;28;20022;-76
2023/01/03 01:39:00;;;;;;;16.55;10.63;;;9.80;79.70;;;;;;5013588;28;20026;-76
2023/01/03 01:44:52;;;;;;;17.77;11.35;;;9.70;79.70;;;;;;5025814;28;20049;-76
2023/01/03 01:47:39;;;;;;;16.63;10.02;;;9.70;79.60;;;;;;5013875;28;20046;-77
2023/01/03 01:50:11;;;;;;;16.83;10.82;;;9.70;79.70;;;;;;5024125;28;20095;-76
2023/01/03 01:52:45;;;;;;;16.65;9.88;;;9.70;79.70;;;;;;5019296;28;20068;-76
2023/01/03 01:55:14;;;;;;;19.27;11.45;;;9.60;79.60;;;;;;5021941;28;20359;-76
2023/01/03 01:57:41;;;;;;;16.25;11.10;;;9.60;79.70;;;;;;5026279;28;20022;-76
2023/01/03 02:00:08;;;;;;;17.05;10.57;;;9.60;79.70;;;;;;5028939;28;20041;-76
2023/01/03 02:02:42;;;;;;;17.05;10.70;;;9.60;79.70;;;;;;5019321;28;20029;-76
2023/01/03 02:05:08;;;;;;;16.52;10.27;;;9.60;79.70;;;;;;5022757;28;20033;-76
2023/01/03 02:07:35;;;;;;;18.40;10.98;;;9.50;79.70;;;;;;5032650;28;20442;-76
2023/01/03 02:10:02;;;;;;;15.98;10.50;;;9.50;79.70;;;;;;5018529;28;20439;-77
2023/01/03 02:15:34;;;;;;;14.40;9.90;;;9.60;79.70;;;;;;5042210;28;20099;-75
2023/01/03 02:18:13;;;;;;;16.70;11.00;;;9.50;79.70;;;;;;5054030;28;20413;-76
2023/01/03 02:21:04;;;;;;;15.38;10.98;;;9.50;79.70;;;;;;5026804;28;20034;-76
2023/01/03 02:23:52;;;;;;;17.05;11.32;;;9.50;79.70;;;;;;5036998;28;20462;-76
2023/01/03 02:26:25;;;;;;;16.80;11.00;;;9.50;79.70;;;;;;5034457;28;20037;-76
2023/01/03 02:29:32;;;;;;;20.05;11.45;;;9.50;79.70;;;;;;5035344;28;20102;-76
2023/01/03 02:32:13;;;;;;;17.33;12.00;;;9.50;79.70;;;;;;5042051;28;20029;-76
2023/01/03 02:35:05;;;;;;;15.48;10.98;;;9.50;79.70;;;;;;5061254;28;20469;-75
2023/01/03 02:38:18;;;;;;;16.73;10.82;;;9.50;79.70;;;;;;5064513;28;20056;-75
2023/01/03 02:41:00;;;;;;;19.38;12.25;;;9.60;79.80;;;;;;5039229;28;20032;-76
2023/01/03 02:43:37;;;;;;;17.25;11.45;;;9.50;79.70;;;;;;5038483;28;20047;-76
2023/01/03 02:46:27;;;;;;;19.23;12.95;;;9.60;79.80;;;;;;5037651;28;20021;-76
2023/01/03 02:48:56;;;;;;;18.40;13.10;;;9.60;79.80;;;;;;5036507;28;20104;-76
2023/01/03 02:51:35;;;;;;;19.95;11.77;;;9.50;79.90;;;;;;5047569;28;20176;-76
2023/01/03 02:54:06;;;;;;;17.00;11.52;;;9.50;79.90;;;;;;5031045;28;20104;-76
2023/01/03 02:57:01;;;;;;;20.48;13.43;;;9.60;80.00;;;;;;5019668;28;20025;-76
2023/01/03 02:59:50;;;;;;;18.67;12.80;;;9.60;79.90;;;;;;5041639;28;20021;-74
2023/01/03 03:02:18;;;;;;;18.75;13.30;;;9.60;79.80;;;;;;5049782;28;20458;-75
2023/01/03 03:04:48;;;;;;;18.30;12.90;;;9.60;79.90;;;;;;5021479;28;20979;-76
2023/01/03 03:07:18;;;;;;;22.17;13.35;;;9.60;79.90;;;;;;5066978;28;20056;-76
2023/01/03 03:15:21;;;;;;;19.73;13.88;;;9.60;79.90;;;;;;5036234;28;20155;-76
2023/01/03 03:17:50;;;;;;;18.17;13.25;;;9.60;79.90;;;;;;5019044;28;20017;-76
2023/01/03 03:26:06;;;;;;;21.33;13.85;;;9.60;80.00;;;;;;5035523;28;20041;-76
2023/01/03 03:28:38;;;;;;;21.90;14.05;;;9.60;80.00;;;;;;5022466;28;20119;-76
2023/01/03 03:31:07;;;;;;;21.88;15.68;;;9.60;80.10;;;;;;5033583;28;20026;-76
2023/01/03 03:33:37;;;;;;;20.70;14.45;;;9.60;80.00;;;;;;5035865;28;20068;-76
2023/01/03 03:36:22;;;;;;;21.77;14.65;;;9.60;80.00;;;;;;5018082;28;20040;-76
2023/01/03 03:38:49;;;;;;;22.75;15.07;;;9.60;80.00;;;;;;5035876;28;20052;-76
2023/01/03 03:45:00;;;;;;;21.23;14.98;;;9.60;80.00;;;;;;5034259;28;20120;-76
2023/01/03 03:47:49;;;;;;;20.27;14.25;;;9.60;80.10;;;;;;5021716;28;20061;-76
2023/01/03 03:50:29;;;;;;;25.67;15.70;;;9.60;80.10;;;;;;5017369;28;20098;-76
2023/01/03 03:52:59;;;;;;;20.27;14.35;;;9.60;80.10;;;;;;5007273;28;20030;-76
2023/01/03 03:56:04;;;;;;;22.45;14.88;;;9.60;80.10;;;;;;5030565;28;20045;-76
2023/01/03 03:58:41;;;;;;;24.50;16.10;;;9.60;80.10;;;;;;5014617;28;20041;-76
2023/01/03 04:01:10;;;;;;;23.10;16.40;;;9.60;80.10;;;;;;5016440;28;20033;-76
2023/01/03 04:03:38;;;;;;;22.10;15.63;;;9.50;80.00;;;;;;5015394;28;20045;-76
2023/01/03 04:06:21;;;;;;;22.83;16.17;;;9.50;80.00;;;;;;5014938;28;20036;-75
2023/01/03 04:08:47;;;;;;;21.90;15.48;;;9.50;79.90;;;;;;5003113;28;20041;-76
2023/01/03 04:11:15;;;;;;;21.23;15.98;;;9.50;80.00;;;;;;5033255;28;20033;-76
2023/01/03 04:13:41;;;;;;;20.77;15.23;;;9.40;80.00;;;;;;5017007;28;20034;-75
2023/01/03 04:16:07;;;;;;;22.98;14.35;;;9.40;80.00;;;;;;5029550;28;20125;-76
2023/01/03 04:18:33;;;;;;;20.10;14.35;;;9.30;80.00;;;;;;5025716;28;20036;-76
2023/01/03 04:20:59;;;;;;;21.23;14.55;;;9.30;80.00;;;;;;5036027;28;20116;-76
2023/01/03 04:23:25;;;;;;;22.25;14.80;;;9.30;80.00;;;;;;5042953;28;20056;-76
2023/01/03 04:25:51;;;;;;;19.38;12.90;;;9.30;79.90;;;;;;5055231;28;20037;-76
2023/01/03 04:28:17;;;;;;;18.02;11.93;;;9.30;79.90;;;;;;5017337;28;20409;-76
2023/01/03 04:30:44;;;;;;;18.35;11.93;;;9.20;79.70;;;;;;5035363;28;20074;-76
2023/01/03 04:33:10;;;;;;;17.08;11.77;;;9.30;79.80;;;;;;5032403;28;20032;-76
2023/01/03 04:35:36;;;;;;;15.52;11.20;;;9.20;79.70;;;;;;5031258;28;20026;-76
2023/01/03 04:38:03;;;;;;;16.25;10.77;;;9.20;79.70;;;;;;5019541;28;20461;-76
2023/01/03 04:40:29;;;;;;;15.40;11.32;;;9.20;79.60;;;;;;5040161;28;20053;-75
2023/01/03 04:45:39;;;;;;;14.45;10.25;;;9.10;79.50;;;;;;5042489;28;20065;-76
2023/01/03 04:48:05;;;;;;;13.88;9.80;;;9.10;79.50;;;;;;5035273;28;20038;-76
2023/01/03 04:50:31;;;;;;;14.23;9.48;;;9.10;79.50;;;;;;5033551;28;20037;-76
2023/01/03 04:52:57;;;;;;;14.63;10.27;;;9.10;79.50;;;;;;5031814;28;20113;-76
2023/01/03 04:55:24;;;;;;;15.52;10.27;;;9.10;79.50;;;;;;5045396;28;20040;-76
2023/01/03 04:57:50;;;;;;;17.02;10.43;;;9.10;79.40;;;;;;5030368;28;20025;-75
2023/01/03 05:00:17;;;;;;;16.38;10.45;;;9.00;79.30;;;;;;5027490;28;20022;-75
2023/01/03 05:02:43;;;;;;;19.98;10.75;;;9.00;79.20;;;;;;5029667;28;20033;-75
2023/01/03 05:05:09;;;;;;;16.23;10.85;;;8.90;79.20;;;;;;5022101;28;20113;-76
2023/01/03 05:07:35;;;;;;;13.25;9.65;;;8.90;79.20;;;;;;5064081;28;20018;-76
2023/01/03 05:10:04;;;;;;;17.77;9.60;;;8.90;79.20;;;;;;5009507;28;20025;-76
2023/01/03 05:12:30;;;;;;;16.75;10.10;;;8.80;79.10;;;;;;5045997;28;20033;-76
2023/01/03 05:14:56;;;;;;;18.13;10.38;;;8.80;79.10;;;;;;5031934;28;20025;-76
2023/01/03 05:17:22;;;;;;;15.50;10.13;;;8.70;79.10;;;;;;5050000;28;20362;-76
2023/01/03 05:28:04;;;;;;;15.50;9.38;;;8.70;79.00;;;;;;5046825;28;20092;-75
2023/01/03 05:30:32;;;;;;;16.13;9.75;;;8.60;78.90;;;;;;5034230;28;20055;-75
2023/01/03 05:32:58;;;;;;;16.80;9.60;;;8.60;78.90;;;;;;5036133;28;20036;-75
2023/01/03 05:35:24;;;;;;;13.20;8.30;;;8.60;78.90;;;;;;5066460;28;20029;-75
2023/01/03 05:37:52;;;;;;;13.93;9.43;;;8.60;78.90;;;;;;5058849;28;20055;-76
2023/01/03 05:40:18;;;;;;;14.75;9.35;;;8.60;78.90;;;;;;5037247;28;20056;-75
2023/01/03 05:42:43;;;;;;;12.98;9.05;;;8.50;78.80;;;;;;5022535;28;20029;-75
2023/01/03 05:45:09;;;;;;;14.15;9.20;;;8.50;78.80;;;;;;5015468;28;20041;-75
2023/01/03 05:47:35;;;;;;;13.63;9.15;;;8.50;78.80;;;;;;5048761;28;20044;-76
2023/01/03 05:50:01;;;;;;;13.55;9.10;;;8.50;78.80;;;;;;5021251;28;20025;-74
2023/01/03 05:52:27;;;;;;;16.83;9.75;;;8.40;78.70;;;;;;5036484;28;20493;-76
2023/01/03 05:54:52;;;;;;;15.52;9.90;;;8.40;78.70;;;;;;5038605;28;20542;-76
2023/01/03 05:57:18;;;;;;;13.00;8.95;;;8.40;78.70;;;;;;5042045;28;20021;-77
2023/01/03 05:59:44;;;;;;;13.63;9.50;;;8.40;78.70;;;;;;5030829;28;20029;-78
2023/01/03 06:02:16;;;;;;;13.93;8.68;;;8.40;78.70;;;;;;5036931;28;20055;-78
2023/01/03 06:04:42;;;;;;;13.00;8.25;;;8.30;78.60;;;;;;5052741;28;20030;-77
2023/01/03 06:07:07;;;;;;;14.68;8.60;;;8.30;78.60;;;;;;5034477;28;20111;-76
2023/01/03 06:09:33;;;;;;;14.15;8.98;;;8.30;78.60;;;;;;5068123;28;20037;-76
2023/01/03 06:11:59;;;;;;;14.18;8.98;;;8.30;78.60;;;;;;5052760;28;20052;-76
2023/01/03 06:14:25;;;;;;;13.45;8.30;;;8.20;78.50;;;;;;5046735;28;20063;-76
2023/01/03 06:19:37;;;;;;;12.50;7.53;;;8.20;78.50;;;;;;5036032;28;20071;-79
2023/01/03 06:22:03;;;;;;;11.10;7.70;;;8.20;78.40;;;;;;5037739;28;20051;-77
2023/01/03 06:24:29;;;;;;;13.82;8.13;;;8.20;78.40;;;;;;5035595;28;20061;-77
2023/01/03 06:26:55;;;;;;;14.82;8.40;;;8.20;78.40;;;;;;5033484;28;20071;-78
2023/01/03 06:29:21;;;;;;;13.55;8.45;;;8.20;78.40;;;;;;5035319;28;20049;-78
2023/01/03 06:31:47;;;;;;;13.95;8.68;;;8.20;78.40;;;;;;5043541;28;20402;-78
2023/01/03 06:34:13;;;;;;;13.05;8.70;;;8.20;78.40;;;;;;5035032;28;20029;-78
2023/01/03 06:36:39;;;;;;;15.00;9.07;;;8.20;78.30;;;;;;5036634;28;20070;-78
2023/01/03 06:39:05;;;;;;;14.73;8.98;;;8.20;78.30;;;;;;5036829;28;20067;-77
2023/01/03 06:41:31;;;;;;;13.48;8.68;;;8.20;78.30;;;;;;5037356;28;20033;-78
2023/01/03 06:43:56;;;;;;;12.95;8.82;;;8.20;78.30;;;;;;5038554;28;20104;-77
2023/01/03 06:54:49;;;;;;;15.40;9.82;;;8.20;78.50;;;;;;5031411;28;20042;-77
2023/01/03 06:57:15;;;;;;;16.08;9.50;;;8.20;78.50;;;;;;5030205;28;20530;-77
2023/01/03 06:59:42;;;;;;;17.65;10.38;;;8.20;78.40;;;;;;5033219;28;20156;-77
2023/01/03 07:02:08;;;;;;;15.82;9.27;;;8.20;78.40;;;;;;5035356;28;20033;-75
2023/01/03 07:04:33;;;;;;;16.23;9.43;;;8.20;78.40;;;;;;5034086;28;20041;-74
2023/01/03 07:06:59;;;;;;;17.63;8.25;;;8.20;78.40;;;;;;5029602;28;20040;-75
2023/01/03 07:09:26;;;;;;;18.33;9.63;;;8.30;78.50;;;;;;5032329;28;20099;-74
2023/01/03 07:11:52;;;;;;;14.60;8.35;;;8.30;78.40;;;;;;5062871;28;20040;-75
2023/01/03 07:14:21;;;;;;;14.07;8.82;;;8.30;78.30;;;;;;5067493;28;20025;-75
2023/01/03 07:16:48;;;;;;;16.33;9.05;;;8.30;78.30;;;;;;5038364;28;20032;-79
2023/01/03 07:19:28;;;;;;;15.82;9.05;;;8.30;78.30;;;;;;5052167;28;20029;-83
2023/01/03 07:22:00;;;;;;;17.10;9.70;;;8.20;78.20;;;;;;5053302;28;20461;-83
2023/01/03 07:24:35;;;;;;;16.10;8.98;;;8.20;78.30;;;;;;5032870;28;20029;-83
2023/01/03 07:27:07;;;;;;;14.60;9.10;;;8.20;78.30;;;;;;5018944;28;20025;-83
2023/01/03 07:29:34;;;;;;;14.25;8.50;;;8.10;78.20;;;;;;5031389;28;20474;-83
2023/01/03 07:32:05;;;;;;;17.67;9.75;;;8.20;78.30;;;;;;5032388;28;20128;-83
2023/01/03 07:34:37;;;;;;;13.75;8.65;;;8.20;78.30;;;;;;5046096;28;20056;-83
2023/01/03 07:37:09;;;;;;;15.80;9.25;;;8.10;78.20;;;;;;5022521;28;20084;-83
2023/01/03 07:39:36;;;;;;;16.00;9.15;;;8.10;78.20;;;;;;5021939;28;20033;-83
2023/01/03 07:44:54;;;;;;;16.15;9.50;;;8.10;78.30;;;;;;5044411;28;20036;-81
2023/01/03 07:47:31;;;;;;;15.73;10.43;;;8.10;78.40;;;;;;5047387;28;20037;-84
2023/01/03 07:50:07;;;;;;;16.17;10.48;;;8.10;78.40;;;;;;5039543;28;20060;-84
2023/01/03 07:52:36;;;;;;;14.68;9.50;;;8.20;78.40;;;;;;5019038;28;20021;-83
2023/01/03 07:55:02;;;;;;;13.43;8.60;;;8.20;78.50;;;;;;5042378;28;20470;-82
2023/01/03 07:57:28;;;;;;;15.88;8.60;;;8.20;78.50;;;;;;5038533;28;20047;-81
2023/01/03 07:59:54;;;;;;;15.48;9.35;;;8.20;78.50;;;;;;5039781;28;20037;-83
2023/01/03 08:02:20;;;;;;;15.88;8.48;;;8.20;78.60;;;;;;5035095;28;20373;-82
2023/01/03 08:04:49;;;;;;;12.13;7.80;;;8.30;78.60;;;;;;5049426;28;20029;-80
2023/01/03 08:07:15;;;;;;;16.02;8.13;;;8.40;78.70;;;;;;5033480;28;20026;-83
2023/01/03 08:15:17;;;;;;;13.65;7.53;;;8.40;78.70;;;;;;5026368;28;20026;-83
2023/01/03 08:17:53;;;;;;;;;;;;;;;;;;;;;
2023/01/03 08:20:31;;;;;;;;;;;;;;;;;;;;;
2023/01/03 08:23:05;;;;;;;12.18;7.00;;;8.50;78.70;;;;;;5060120;28;20060;-80
2023/01/03 08:25:37;;;;;;;11.77;7.05;;;8.50;78.70;;;;;;5034092;28;20445;-79
2023/01/03 08:28:27;;;;;;;12.40;7.40;;;8.50;78.80;;;;;;5030903;28;20129;-81
2023/01/03 08:31:06;;;;;;;13.63;6.63;;;8.50;78.90;;;;;;5032124;28;20030;-84
2023/01/03 08:33:46;;;;;;;13.02;7.57;;;8.50;78.80;;;;;;5037350;28;20120;-77
2023/01/03 08:36:33;;;;;;;12.82;6.43;;;8.50;78.80;;;;;;5029935;28;20030;-76
2023/01/03 08:39:10;;;;;;;12.20;7.13;;;8.50;78.90;;;;;;5036214;28;20100;-76
2023/01/03 08:41:53;;;;;;;13.23;6.57;;;8.50;78.90;;;;;;5031974;28;20029;-77
2023/01/03 08:44:30;;;;;;;11.65;7.40;;;8.60;78.90;;;;;;5031228;28;20029;-76
2023/01/03 08:47:24;;;;;;;11.52;6.75;;;8.60;78.80;;;;;;5030430;28;20410;-76
2023/01/03 08:50:05;;;;;;;12.05;6.28;;;8.60;78.90;;;;;;5033179;28;20100;-75
2023/01/03 08:52:32;;;;;;;13.45;7.03;;;8.60;78.90;;;;;;5065516;28;20361;-75
2023/01/03 08:55:22;;;;;;;11.50;6.47;;;8.60;78.90;;;;;;5031010;28;20021;-76
2023/01/03 08:57:58;;;;;;;11.82;6.85;;;8.60;79.00;;;;;;5041792;28;20068;-76
2023/01/03 09:00:25;;;;;;;11.43;6.78;;;8.70;79.10;;;;;;5049034;28;20037;-74
2023/01/03 09:03:04;;;;;;;13.82;7.68;;;8.70;79.10;;;;;;5029491;28;20068;-76
2023/01/03 09:05:29;;;;;;;14.02;6.68;;;8.70;79.10;;;;;;5041198;28;20408;-76
2023/01/03 09:08:00;;;;;;;11.55;6.93;;;8.70;79.20;;;;;;5032744;28;20056;-77
2023/01/03 09:10:29;;;;;;;10.80;7.18;;;8.70;79.20;;;;;;5035835;28;20037;-77
2023/01/03 09:12:55;;;;;;;11.65;6.30;;;8.80;79.30;;;;;;5055376;28;20163;-77
2023/01/03 09:15:26;;;;;;;11.85;7.00;;;8.80;79.40;;;;;;5016695;28;20394;-76
2023/01/03 09:18:00;;;;;;;12.77;6.28;;;8.80;79.40;;;;;;5031158;28;20041;-75
2023/01/03 09:20:33;;;;;;;13.50;6.95;;;8.80;79.50;;;;;;5035532;28;20322;-77
2023/01/03 09:23:12;;;;;;;12.32;6.63;;;8.90;79.60;;;;;;5036721;28;20347;-77
2023/01/03 09:25:51;;;;;;;12.68;7.22;;;8.90;79.60;;;;;;5036505;28;20036;-77
2023/01/03 09:28:38;;;;;;;10.98;7.22;;;9.00;79.60;;;;;;5067411;28;20063;-77
2023/01/03 09:31:15;;;;;;;11.00;6.20;;;9.00;79.70;;;;;;5033900;28;20323;-77
2023/01/03 09:34:04;;;;;;;13.13;6.80;;;9.10;79.80;;;;;;5065659;28;20041;-82
2023/01/03 09:36:35;;;;;;;10.27;6.22;;;9.10;79.80;;;;;;5037664;28;20018;-82
2023/01/03 09:39:09;;;;;;;15.70;7.20;;;9.10;79.80;;;;;;5019096;28;20021;-83
2023/01/03 09:43:11;;;;;;;12.68;6.80;;;9.20;79.90;;;;;;5035428;28;20105;-85
2023/01/03 09:44:32;;;;;;;14.52;7.45;;;9.20;79.90;;;;;;5035227;28;20030;-85
2023/01/03 09:47:18;;;;;;;11.32;5.97;;;9.20;79.90;;;;;;5032890;28;20039;-84
2023/01/03 09:50:00;;;;;;;12.32;6.75;;;9.30;80.10;;;;;;5049540;28;20036;-83
2023/01/03 10:06:28;;;;;;;12.98;6.63;;;9.30;80.20;;;;;;5047680;28;20033;-86
2023/01/03 10:09:18;;;;;;;15.07;7.63;;;9.30;80.20;;;;;;5034826;28;20033;-85
2023/01/03 10:12:18;;;;;;;13.23;7.72;;;9.40;80.30;;;;;;5034230;28;20018;-85
2023/01/03 10:15:28;;;;;;;14.05;7.97;;;9.40;80.30;;;;;;5034802;28;20056;-85
2023/01/03 10:18:43;;;;;;;14.13;7.25;;;9.40;80.40;;;;;;4986884;28;20455;-86
2023/01/03 10:29:06;;;;;;;13.68;7.03;;;9.50;80.40;;;;;;4994386;28;20085;-85
2023/01/03 10:32:07;;;;;;;13.50;7.28;;;9.50;80.50;;;;;;4994686;28;20482;-85
2023/01/03 10:35:07;;;;;;;11.73;6.63;;;9.50;80.60;;;;;;5003524;28;20169;-85
2023/01/03 10:37:42;;;;;;;14.73;7.03;;;9.50;80.70;;;;;;4995680;28;20106;-85
2023/01/03 10:40:19;;;;;;;12.23;6.20;;;9.60;80.80;;;;;;5009713;28;20046;-86
2023/01/03 10:43:19;;;;;;;11.75;7.13;;;9.60;80.80;;;;;;4976169;28;20043;-85
2023/01/03 10:49:23;;;;;;;12.98;6.90;;;9.70;80.80;;;;;;5021153;28;20112;-85
2023/01/03 10:52:31;;;;;;;13.70;6.88;;;9.70;80.90;;;;;;5013569;28;20034;-85
2023/01/03 10:55:22;;;;;;;11.95;6.68;;;9.70;81.60;;;;;;4997036;28;20033;-85
2023/01/03 10:57:51;;;;;;;10.73;6.47;;;9.70;81.00;;;;;;5000753;28;20030;-85
2023/01/03 11:00:42;;;;;;;12.15;6.15;;;9.70;81.00;;;;;;4998774;28;20034;-86
2023/01/03 11:03:24;;;;;;;12.13;6.65;;;9.80;81.10;;;;;;5010455;28;20117;-85
2023/01/03 11:06:23;;;;;;;12.80;6.72;;;9.80;81.10;;;;;;5024309;28;20026;-85
2023/01/03 11:09:10;;;;;;;10.07;5.40;;;9.80;81.10;;;;;;5032829;28;20095;-83
2023/01/03 11:12:30;;;;;;;11.75;5.68;;;9.80;81.10;;;;;;5034064;28;20042;-83
2023/01/03 11:15:00;;;;;;;12.10;6.85;;;9.80;81.20;;;;;;5054478;28;20060;-84
2023/01/03 11:17:28;;;;;;;13.73;6.13;;;9.80;81.20;;;;;;5033774;28;20034;-82
2023/01/03 11:19:57;;;;;;;12.27;6.15;;;9.90;81.30;;;;;;5036569;28;20037;-84
2023/01/03 11:22:48;;;;;;;12.88;6.47;;;9.90;81.20;;;;;;5051407;28;20041;-84
2023/01/03 11:25:46;;;;;;;12.40;6.13;;;9.90;81.20;;;;;;5017742;28;20029;-83
2023/01/03 11:28:42;;;;;;;12.57;6.20;;;9.90;81.20;;;;;;5028891;28;20079;-85
2023/01/03 11:31:42;;;;;;;13.27;6.38;;;10.00;81.30;;;;;;5050048;28;20042;-84
2023/01/03 11:34:56;;;;;;;;;;;;;;;;;;;;;
2023/01/03 11:38:23;;;;;;;10.48;5.45;;;10.00;81.30;;;;;;5061584;28;20041;-83
2023/01/03 11:41:23;;;;;;;11.38;5.80;;;10.00;81.30;;;;;;4996296;28;20176;-84
2023/01/03 11:44:16;;;;;;;12.00;5.70;;;10.00;81.30;;;;;;5024489;28;20065;-83
2023/01/03 11:47:07;;;;;;;12.07;5.72;;;10.00;81.30;;;;;;5033930;28;20513;-82
2023/01/03 11:49:52;;;;;;;10.88;6.03;;;10.00;81.40;;;;;;5034506;28;20037;-82
2023/01/03 11:53:02;;;;;;;12.38;6.10;;;10.00;81.40;;;;;;5034710;28;20068;-82
2023/01/03 11:55:43;;;;;;;12.07;5.80;;;10.10;81.40;;;;;;5041636;28;20128;-81
2023/01/03 11:58:30;;;;;;;12.20;5.50;;;10.10;81.50;;;;;;5001315;28;20037;-83
2023/01/03 12:01:41;;;;;;;11.13;5.50;;;10.10;81.50;;;;;;5027339;28;20722;-84
2023/01/03 12:04:34;;;;;;;13.35;5.55;;;10.10;81.40;;;;;;5006192;28;20111;-82
2023/01/03 12:07:18;;;;;;;9.85;5.20;;;10.10;81.40;;;;;;5003235;28;20033;-82
2023/01/03 12:10:31;;;;;;;10.25;5.07;;;10.10;81.40;;;;;;4987887;28;20049;-81
2023/01/03 12:13:31;;;;;;;10.80;5.65;;;10.10;81.50;;;;;;5018373;28;20030;-81
2023/01/03 12:16:07;;;;;;;11.70;6.10;;;10.10;81.50;;;;;;5009878;28;20044;-78
2023/01/03 12:18:49;;;;;;;11.35;5.15;;;10.10;81.50;;;;;;4988951;28;20383;-78
2023/01/03 12:21:37;;;;;;;10.13;5.10;;;10.10;81.50;;;;;;4994474;28;20029;-78
2023/01/03 12:24:20;;;;;;;11.93;5.40;;;10.10;81.40;;;;;;4996831;28;20045;-78
2023/01/03 12:26:52;;;;;;;12.10;5.20;;;10.10;81.50;;;;;;5013106;28;20056;-78
2023/01/03 12:29:30;;;;;;;11.23;5.25;;;10.10;81.50;;;;;;4995564;28;20064;-78
2023/01/03 12:31:59;;;;;;;10.13;5.20;;;10.20;81.50;;;;;;5019688;28;20068;-78
2023/01/03 12:34:33;;;;;;;9.65;5.15;;;10.20;81.50;;;;;;5026652;28;20076;-78
2023/01/03 12:37:13;;;;;;;10.68;5.13;;;10.20;82.00;;;;;;5032322;28;20045;-80
2023/01/03 12:39:56;;;;;;;9.27;4.80;;;10.20;81.20;;;;;;5023785;28;20021;-79
2023/01/03 12:42:34;;;;;;;8.57;4.20;;;10.30;81.30;;;;;;5029673;28;20030;-77
2023/01/03 12:45:16;;;;;;;9.48;4.25;;;10.30;81.80;;;;;;5032764;28;20344;-77
2023/01/03 12:48:01;;;;;;;10.23;4.75;;;10.30;81.20;;;;;;5036108;28;20044;-77
2023/01/03 12:50:43;;;;;;;9.57;5.00;;;10.30;81.10;;;;;;5029299;28;20034;-77
2023/01/03 12:53:26;;;;;;;9.88;5.00;;;10.30;81.10;;;;;;5031138;28;20125;-78
2023/01/03 12:56:12;;;;;;;12.18;5.78;;;10.30;81.00;;;;;;5040328;28;20025;-78
2023/01/03 12:58:58;;;;;;;10.13;5.13;;;10.40;81.00;;;;;;5026996;28;20041;-74
2023/01/03 13:01:36;;;;;;;10.13;5.25;;;10.40;80.90;;;;;;5017606;28;20354;-74
2023/01/03 13:04:15;;;;;;;12.32;5.70;;;10.40;80.90;;;;;;5032983;28;20021;-74
2023/01/03 13:06:47;;;;;;;11.60;5.20;;;10.40;80.80;;;;;;5020114;28;20078;-74
2023/01/03 13:09:25;;;;;;;9.23;5.10;;;10.40;80.70;;;;;;5018106;28;20029;-74
2023/01/03 13:11:58;;;;;;;7.95;4.65;;;10.50;80.70;;;;;;5026003;28;20040;-76
2023/01/03 13:14:26;;;;;;;10.55;5.30;;;10.50;80.50;;;;;;5032104;28;20350;-76
2023/01/03 13:17:18;;;;;;;10.43;5.43;;;10.50;80.40;;;;;;5039067;28;20021;-75
2023/01/03 13:19:55;;;;;;;;;;;10.60;80.30;;;;;;5024223;28;20091;-75
2023/01/03 13:22:44;;;;;;;10.35;4.30;;;10.60;80.30;;;;;;5034516;28;20012;-75
2023/01/03 13:25:25;;;;;;;10.60;5.22;;;10.50;80.30;;;;;;5029924;28;20034;-75
2023/01/03 13:27:52;;;;;;;10.38;5.15;;;10.50;80.20;;;;;;5044246;28;20128;-75
2023/01/03 13:30:37;;;;;;;9.82;4.88;;;10.50;80.10;;;;;;5032336;28;20049;-75
2023/01/03 13:33:09;;;;;;;9.93;5.40;;;10.60;80.20;;;;;;5028349;28;20426;-74
2023/01/03 13:35:35;;;;;;;;;;;10.60;80.10;;;;;;5050678;28;20029;-75
2023/01/03 13:38:25;;;;;;;10.38;4.88;;;10.50;80.10;;;;;;5038622;28;20292;-75
2023/01/03 13:41:01;;;;;;;11.05;4.90;;;10.50;79.90;;;;;;5046488;28;20025;-75
2023/01/03 13:43:31;;;;;;;11.48;4.60;;;10.50;79.90;;;;;;5036566;28;20057;-75
2023/01/03 13:46:00;;;;;;;8.30;4.28;;;10.50;79.80;;;;;;5029435;28;20056;-75
2023/01/03 13:48:35;;;;;;;8.02;3.90;;;10.50;79.90;;;;;;5014715;28;20038;-75
2023/01/03 13:51:15;;;;;;;10.45;3.58;;;10.60;79.60;;;;;;5030776;28;20076;-78
2023/01/03 13:54:24;;;;;;;9.90;3.40;;;10.60;79.50;;;;;;5044465;28;20025;-76
2023/01/03 13:56:53;;;;;;;9.50;3.65;;;10.60;79.30;;;;;;5030634;28;20037;-77
2023/01/03 13:59:31;;;;;;;11.32;3.97;;;10.60;79.20;;;;;;5014550;28;21453;-79
2023/01/03 14:02:08;;;;;;;7.28;3.40;;;10.60;79.10;;;;;;5038486;28;20021;-80
2023/01/03 14:04:53;;;;;;;9.25;3.20;;;10.60;78.90;;;;;;5032115;28;20033;-77
2023/01/03 14:07:39;;;;;;;7.53;3.05;;;10.60;78.90;;;;;;5038799;28;20065;-79
2023/01/03 14:10:25;;;;;;;6.88;3.22;;;10.70;78.70;;;;;;5029993;28;20029;-79
2023/01/03 14:12:57;;;;;;;6.82;3.50;;;10.70;78.60;;;;;;5032573;28;20030;-80
2023/01/03 14:15:25;;;;;;;7.25;2.95;;;10.70;78.50;;;;;;5039427;28;20036;-79
2023/01/03 14:18:11;;;;;;;8.90;3.75;;;10.80;78.40;;;;;;5037135;28;20103;-79
2023/01/03 14:20:40;;;;;;;8.65;3.45;;;10.80;78.20;;;;;;5035295;28;20328;-78
2023/01/03 14:23:07;;;;;;;7.18;3.55;;;10.80;78.20;;;;;;5035954;28;20021;-78
2023/01/03 14:25:38;;;;;;;7.85;3.65;;;10.80;78.10;;;;;;5038499;28;20171;-78
2023/01/03 14:28:26;;;;;;;6.93;3.67;;;10.80;78.00;;;;;;5050390;28;20442;-77
2023/01/03 14:31:14;;;;;;;8.20;3.92;;;10.80;77.90;;;;;;5044316;28;20016;-78
2023/01/03 14:33:51;;;;;;;8.65;3.60;;;10.80;77.90;;;;;;5067829;28;20028;-77
2023/01/03 14:36:22;;;;;;;10.18;3.83;;;10.80;77.90;;;;;;5026198;28;20066;-77
2023/01/03 14:38:53;;;;;;;7.55;3.80;;;10.80;77.90;;;;;;5039706;28;20488;-80
2023/01/03 14:41:46;;;;;;;6.95;3.33;;;10.70;77.80;;;;;;5024647;28;20025;-77
2023/01/03 14:44:16;;;;;;;9.30;4.50;;;10.70;77.70;;;;;;5030444;28;20051;-77